Time;durP1;ratioP1;P1;durP2;ratioP2;P2;SDS_P1;SDS_P2;PMS_P1;PMS_P2;Temp;Humidity;BMP_temperature;BMP_pressure;BME280_temperature;BME280_humidity;BME280_pressure;Samples;Min_cycle;Max_cycle;Signal;HPM_P1;HPM_P2
2023/04/15 06:53:27;;;;;;;8.10;3.75;;;;;;;5.53;70.93;95629.56;2100460;27;20554;-57
2023/04/15 06:54:28;;;;;;;7.30;3.90;;;;;;;5.99;69.80;95632.00;2092950;28;20294;-57
2023/04/15 06:55:30;;;;;;;7.38;4.20;;;;;;;6.11;69.72;95628.06;2081896;28;20247;-57
2023/04/15 06:56:32;;;;;;;9.40;4.25;;;;;;;6.18;69.35;95627.75;2082285;28;20688;-57
2023/04/15 06:57:34;;;;;;;10.40;4.80;;;;;;;6.52;68.37;95621.03;2083605;28;20648;-57
2023/04/15 06:58:35;;;;;;;9.45;4.70;;;;;;;6.38;68.35;95626.84;2081825;28;20197;-57
2023/04/15 06:59:37;;;;;;;8.25;3.95;;;;;;;6.64;67.07;95626.59;2075390;28;20245;-57
2023/04/15 07:00:39;;;;;;;8.18;3.28;;;;;;;6.63;66.16;95625.75;2072273;28;20194;-57
2023/04/15 07:01:41;;;;;;;12.27;4.63;;;;;;;6.46;66.58;95625.66;2073669;28;20213;-57
2023/04/15 07:02:43;;;;;;;10.63;4.78;;;;;;;6.63;66.57;95624.94;2074659;28;20247;-57
2023/04/15 07:03:45;;;;;;;7.25;4.15;;;;;;;6.45;66.93;95627.44;2075329;28;20699;-57
2023/04/15 07:04:46;;;;;;;12.13;4.60;;;;;;;6.77;66.66;95629.50;2075015;28;20232;-57
2023/04/15 07:05:47;;;;;;;9.80;4.53;;;;;;;6.88;66.28;95634.16;2075779;28;20893;-57
2023/04/15 07:06:49;;;;;;;8.85;4.30;;;;;;;7.39;64.98;95624.00;2074134;28;20833;-57
2023/04/15 07:07:51;;;;;;;10.68;4.13;;;;;;;7.68;63.95;95628.63;2075908;28;20209;-57
2023/04/15 07:08:54;;;;;;;11.73;3.88;;;;;;;7.46;63.81;95630.56;2073881;28;20247;-57
2023/04/15 07:09:56;;;;;;;7.40;3.30;;;;;;;7.75;63.55;95631.75;2072402;28;20285;-57
2023/04/15 07:10:57;;;;;;;8.70;3.05;;;;;;;8.17;62.50;95621.84;2074167;28;20193;-57
2023/04/15 07:11:58;;;;;;;6.57;3.35;;;;;;;7.83;62.78;95634.81;2075805;28;20198;-57
2023/04/15 07:13:00;;;;;;;7.80;3.50;;;;;;;7.90;63.35;95629.28;2070786;28;20763;-57
2023/04/15 07:14:02;;;;;;;5.70;2.90;;;;;;;8.17;62.78;95627.06;2071771;28;20208;-57
2023/04/15 07:15:04;;;;;;;10.05;3.47;;;;;;;8.41;62.17;95624.13;2072527;28;20239;-57
2023/04/15 07:16:05;;;;;;;8.57;3.45;;;;;;;8.65;61.78;95622.84;2074427;28;20655;-57
2023/04/15 07:17:08;;;;;;;13.00;2.80;;;;;;;9.10;60.48;95623.06;2073918;28;20317;-57
2023/04/15 07:18:10;;;;;;;9.15;3.28;;;;;;;9.09;60.73;95615.31;2074648;28;20243;-57
2023/04/15 07:19:11;;;;;;;7.38;2.60;;;;;;;8.93;60.63;95626.56;2073594;28;20229;-57
2023/04/15 07:20:13;;;;;;;9.30;2.97;;;;;;;9.06;60.60;95618.09;2066545;28;20227;-57
2023/04/15 07:21:14;;;;;;;6.45;2.60;;;;;;;9.25;59.79;95620.50;2071949;28;20207;-57
2023/04/15 07:22:16;;;;;;;9.82;2.30;;;;;;;9.47;59.36;95618.38;2073756;28;20239;-57
2023/04/15 07:23:17;;;;;;;6.35;2.88;;;;;;;9.94;58.20;95615.72;2073832;28;20201;-57
2023/04/15 07:24:19;;;;;;;13.07;3.00;;;;;;;9.67;58.55;95621.63;2073159;28;20212;-58
2023/04/15 07:25:21;;;;;;;33.80;18.17;;;;;;;9.62;59.15;95621.91;2073996;28;20223;-57
2023/04/15 07:26:23;;;;;;;45.60;19.67;;;;;;;9.55;60.15;95615.34;2074401;28;20202;-58
2023/04/15 07:27:25;;;;;;;10.13;4.13;;;;;;;9.70;59.36;95618.00;2072903;28;20196;-57
2023/04/15 07:28:26;;;;;;;7.32;3.75;;;;;;;9.60;59.16;95618.53;2073287;28;20206;-57
2023/04/15 07:29:28;;;;;;;4.78;2.30;;;;;;;9.74;59.09;95625.56;2072758;28;20224;-57
2023/04/15 07:30:29;;;;;;;14.57;2.78;;;;;;;9.63;58.74;95626.16;2072711;28;20653;-57
2023/04/15 07:31:31;;;;;;;9.35;3.75;;;;;;;9.48;59.23;95617.47;2073541;28;20647;-57
2023/04/15 07:32:32;;;;;;;15.75;2.88;;;;;;;9.39;59.21;95625.78;2074063;28;20193;-57
2023/04/15 07:33:35;;;;;;;6.97;2.65;;;;;;;9.60;59.26;95617.69;2073951;28;20322;-58
2023/04/15 07:34:37;;;;;;;5.60;2.72;;;;;;;9.27;59.88;95627.31;2073618;28;20251;-57
2023/04/15 07:35:38;;;;;;;5.72;2.50;;;;;;;9.28;60.28;95625.53;2074138;28;20701;-57
2023/04/15 07:36:40;;;;;;;7.50;2.65;;;;;;;9.35;60.23;95624.28;2073094;28;20701;-57
2023/04/15 07:37:42;;;;;;;8.60;2.65;;;;;;;9.77;60.16;95630.56;2074689;28;20200;-57
2023/04/15 07:38:43;;;;;;;10.73;3.15;;;;;;;10.13;58.82;95629.38;2074889;28;20201;-57
2023/04/15 07:39:45;;;;;;;11.25;3.25;;;;;;;10.40;57.55;95630.47;2071950;28;20264;-57
2023/04/15 07:40:47;;;;;;;6.50;2.35;;;;;;;10.49;57.29;95618.63;2072630;28;20198;-57
2023/04/15 07:41:48;;;;;;;12.80;3.15;;;;;;;10.75;57.04;95624.88;2074040;28;20205;-57
2023/04/15 07:42:50;;;;;;;6.20;2.30;;;;;;;11.01;56.44;95632.84;2074041;28;20241;-57
2023/04/15 07:43:51;;;;;;;6.78;2.55;;;;;;;10.66;57.28;95622.81;2072140;28;20286;-57
2023/04/15 07:44:53;;;;;;;5.30;2.95;;;;;;;10.26;58.65;95628.66;2074430;28;20343;-57
2023/04/15 07:45:54;;;;;;;14.02;3.35;;;;;;;10.38;58.66;95588.78;2073638;28;20842;-57
2023/04/15 07:46:56;;;;;;;11.35;3.35;;;;;;;10.84;58.27;95626.06;2073044;28;20206;-57
2023/04/15 07:47:57;;;;;;;5.82;2.72;;;;;;;10.83;57.25;95621.78;2073404;28;20649;-58
2023/04/15 07:48:59;;;;;;;11.43;2.60;;;;;;;10.86;56.77;95630.25;2072995;28;20206;-57
2023/04/15 07:50:01;;;;;;;12.00;2.90;;;;;;;10.88;56.84;95620.56;2071436;28;20324;-57
2023/04/15 07:51:03;;;;;;;7.00;2.75;;;;;;;10.79;57.02;95626.34;2070349;28;20197;-57
2023/04/15 07:52:04;;;;;;;9.38;2.35;;;;;;;10.72;57.74;95625.88;2071525;28;20212;-57
2023/04/15 07:53:06;;;;;;;11.40;3.80;;;;;;;10.78;57.57;95629.91;2073219;28;20247;-57
2023/04/15 07:54:07;;;;;;;8.27;2.70;;;;;;;10.65;57.47;95615.91;2073758;28;21027;-57
2023/04/15 07:55:09;;;;;;;6.60;2.45;;;;;;;11.01;57.66;95627.63;2072852;28;20225;-57
2023/04/15 07:56:11;;;;;;;7.75;2.67;;;;;;;10.87;57.75;95626.72;2070404;28;20209;-57
2023/04/15 07:57:12;;;;;;;10.13;3.28;;;;;;;10.44;58.65;95624.13;2073641;28;20820;-57
2023/04/15 07:58:13;;;;;;;6.50;2.70;;;;;;;10.61;58.70;95621.34;2073295;28;20296;-57
2023/04/15 07:59:16;;;;;;;8.27;2.55;;;;;;;10.90;58.60;95620.47;2072633;28;20292;-57
2023/04/15 08:00:18;;;;;;;7.32;2.40;;;;;;;10.84;58.51;95621.66;2075483;28;20205;-57
2023/04/15 08:01:20;;;;;;;7.97;2.63;;;;;;;10.80;59.12;95621.97;2073473;28;20254;-57
2023/04/15 08:02:22;;;;;;;5.43;2.30;;;;;;;10.88;58.47;95623.19;2071853;28;20644;-57
2023/04/15 08:03:24;;;;;;;10.32;2.83;;;;;;;11.03;57.98;95617.91;2073421;28;20576;-57
2023/04/15 08:04:26;;;;;;;10.68;2.50;;;;;;;11.18;58.14;95622.19;2066771;28;20209;-57
2023/04/15 08:05:27;;;;;;;11.55;2.42;;;;;;;11.15;57.65;95611.94;2067227;28;20206;-57
2023/04/15 08:06:29;;;;;;;12.70;3.42;;;;;;;11.02;58.17;95621.47;2066668;28;20586;-57
2023/04/15 08:07:31;;;;;;;7.50;2.90;;;;;;;11.04;58.04;95624.84;2065057;28;20205;-57
2023/04/15 08:08:32;;;;;;;13.73;3.22;;;;;;;10.96;59.26;95620.09;2066384;28;20236;-57
2023/04/15 08:09:34;;;;;;;8.15;2.83;;;;;;;11.35;58.03;95621.13;2066329;28;20241;-57
2023/04/15 08:10:36;;;;;;;8.32;2.95;;;;;;;11.55;58.83;95614.59;2066619;28;20209;-57
2023/04/15 08:11:38;;;;;;;8.65;2.45;;;;;;;11.07;59.31;95620.25;2067616;28;20199;-57
2023/04/15 08:12:39;;;;;;;8.15;2.92;;;;;;;11.50;57.68;95623.66;2068981;28;20201;-57
2023/04/15 08:13:41;;;;;;;10.93;2.33;;;;;;;11.83;57.50;95619.78;2067776;28;20256;-57
2023/04/15 08:14:43;;;;;;;9.30;3.10;;;;;;;12.44;55.63;95624.50;2067579;28;20715;-57
2023/04/15 08:15:44;;;;;;;14.38;3.13;;;;;;;12.80;54.79;95622.88;2068708;28;20660;-57
2023/04/15 08:16:45;;;;;;;4.68;2.55;;;;;;;12.88;55.75;95621.41;2068708;28;20205;-57
2023/04/15 08:17:47;;;;;;;16.02;2.53;;;;;;;13.02;55.99;95632.72;2064892;28;20772;-57
2023/04/15 08:18:50;;;;;;;7.03;2.70;;;;;;;13.45;54.89;95628.84;2065121;28;20756;-57
2023/04/15 08:19:52;;;;;;;9.73;2.72;;;;;;;13.71;52.81;95619.91;2072171;28;20323;-58
2023/04/15 08:20:53;;;;;;;26.30;13.18;;;;;;;14.05;50.32;95621.81;2072822;28;20352;-59
2023/04/15 08:21:55;;;;;;;56.85;30.30;;;;;;;14.76;49.32;95615.63;2073866;28;20197;-59
2023/04/15 08:22:57;;;;;;;39.28;16.67;;;;;;;14.98;48.51;95622.66;2073083;28;20615;-58
2023/04/15 08:23:59;;;;;;;5.00;2.03;;;;;;;14.83;47.49;95628.16;2073790;28;20186;-58
2023/04/15 08:25:01;;;;;;;9.15;2.55;;;;;;;15.40;47.67;95624.63;2073524;28;20283;-58
2023/04/15 08:26:02;;;;;;;6.28;2.38;;;;;;;15.17;47.40;95630.78;2074216;28;20208;-58
2023/04/15 08:27:04;;;;;;;8.50;1.50;;;;;;;15.54;45.75;95619.13;2074468;28;20331;-58
2023/04/15 08:28:07;;;;;;;5.53;1.55;;;;;;;15.72;44.90;95626.44;2073537;28;20209;-58
2023/04/15 08:29:09;;;;;;;7.75;1.42;;;;;;;15.71;43.72;95622.16;2074940;28;20529;-58
2023/04/15 08:30:11;;;;;;;3.63;1.73;;;;;;;15.33;44.15;95624.28;2073749;28;20865;-59
2023/04/15 08:31:16;;;;;;;3.45;1.42;;;;;;;15.40;44.73;95624.63;2072730;28;20228;-58
2023/04/15 08:32:19;;;;;;;10.90;3.55;;;;;;;15.75;43.23;95626.22;2074362;28;20206;-58
2023/04/15 08:33:20;;;;;;;8.15;3.85;;;;;;;15.85;42.91;95629.78;2075694;28;20197;-58
2023/04/15 08:34:23;;;;;;;22.15;12.25;;;;;;;15.50;43.06;95626.41;2075060;28;20205;-58
2023/04/15 08:35:24;;;;;;;3.75;2.40;;;;;;;15.52;43.54;95624.47;2075932;28;20202;-58
2023/04/15 08:36:26;;;;;;;20.30;11.43;;;;;;;15.45;43.69;95633.00;2075891;28;20610;-58
2023/04/15 08:37:27;;;;;;;5.95;2.08;;;;;;;15.02;44.38;95626.75;2075708;28;20197;-58
2023/04/15 08:38:29;;;;;;;5.03;1.70;;;;;;;14.96;45.08;95629.84;2076805;28;20193;-58
2023/04/15 08:39:31;;;;;;;4.57;1.30;;;;;;;14.93;45.35;95635.34;2073883;28;20288;-59
2023/04/15 08:40:40;;;;;;;4.82;1.52;;;;;;;14.68;45.22;95630.19;2075650;28;20281;-58
2023/04/15 08:41:46;;;;;;;6.45;1.40;;;;;;;14.60;46.28;95622.06;2075600;28;20212;-58
2023/04/15 08:42:53;;;;;;;6.35;1.45;;;;;;;14.84;45.57;95640.38;2078019;28;20200;-58
2023/04/15 08:44:02;;;;;;;4.82;1.50;;;;;;;14.83;45.92;95627.31;2072904;28;20208;-58
2023/04/15 08:45:04;;;;;;;5.25;1.45;;;;;;;14.93;45.44;95633.56;2073007;28;20244;-59
2023/04/15 08:46:08;;;;;;;6.70;1.42;;;;;;;14.79;46.03;95634.63;2076029;28;20332;-59
2023/04/15 08:47:13;;;;;;;5.22;1.77;;;;;;;14.47;45.98;95631.81;2075813;28;20203;-59
2023/04/15 08:48:15;;;;;;;5.00;1.42;;;;;;;14.65;45.99;95632.22;2077129;28;20189;-60
2023/04/15 08:49:18;;;;;;;4.07;1.33;;;;;;;14.64;45.65;95638.38;2075327;28;20765;-59
2023/04/15 08:50:20;;;;;;;5.68;1.80;;;;;;;14.34;45.81;95637.16;2075119;28;20810;-60
2023/04/15 08:51:23;;;;;;;4.72;1.55;;;;;;;14.25;45.50;95632.63;2076042;28;20198;-60
2023/04/15 08:52:26;;;;;;;9.30;1.95;;;;;;;14.27;46.09;95635.94;2074513;28;20202;-59
2023/04/15 08:53:28;;;;;;;3.92;1.30;;;;;;;14.10;45.95;95634.59;2072256;28;20293;-59
2023/04/15 08:54:30;;;;;;;4.70;1.55;;;;;;;14.47;46.07;95640.50;2075933;28;20214;-59
2023/04/15 08:55:35;;;;;;;4.35;1.70;;;;;;;14.41;46.75;95633.13;2074884;28;20209;-59
2023/04/15 08:56:38;;;;;;;6.13;1.60;;;;;;;14.56;46.74;95627.66;2077230;28;20244;-59
2023/04/15 08:57:39;;;;;;;5.55;1.85;;;;;;;14.85;45.68;95630.69;2075462;28;20208;-59
2023/04/15 08:58:43;;;;;;;2.88;1.50;;;;;;;15.24;45.72;95635.56;2075069;28;20206;-60
2023/04/15 08:59:45;;;;;;;3.45;1.30;;;;;;;15.10;44.66;95632.22;2072156;28;20229;-59
2023/04/15 09:00:47;;;;;;;3.35;1.75;;;;;;;15.08;44.52;95635.94;2075381;28;20735;-59
2023/04/15 09:01:52;;;;;;;5.15;2.20;;;;;;;14.85;45.46;95628.03;2074889;28;20197;-59
2023/04/15 09:02:58;;;;;;;3.50;1.42;;;;;;;14.97;46.36;95634.97;2072625;28;20213;-59
2023/04/15 09:04:02;;;;;;;6.43;1.40;;;;;;;15.11;46.37;95636.53;2074188;28;20669;-59
2023/04/15 09:05:05;;;;;;;3.63;1.63;;;;;;;15.20;45.79;95640.22;2075955;28;20259;-60
2023/04/15 09:06:07;;;;;;;3.28;1.40;;;;;;;15.27;44.89;95635.31;2076883;28;20201;-59
2023/04/15 09:07:09;;;;;;;5.75;1.45;;;;;;;15.46;44.42;95639.94;2072593;28;20201;-59
2023/04/15 09:08:10;;;;;;;4.75;1.67;;;;;;;15.21;44.28;95639.28;2074837;28;20208;-60
2023/04/15 09:09:13;;;;;;;6.03;1.55;;;;;;;15.60;45.18;95633.56;2076750;28;20203;-59
2023/04/15 09:10:14;;;;;;;3.78;1.80;;;;;;;15.95;44.67;95640.41;2075977;28;20209;-59
2023/04/15 09:11:19;;;;;;;6.22;1.67;;;;;;;16.36;43.99;95640.56;2076333;28;20209;-60
2023/04/15 09:12:21;;;;;;;6.30;1.70;;;;;;;16.23;44.24;95640.75;2076334;28;20204;-59
2023/04/15 09:13:22;;;;;;;6.75;1.70;;;;;;;15.93;43.47;95647.59;2075868;28;20209;-59
2023/04/15 09:14:24;;;;;;;5.22;1.77;;;;;;;16.30;43.88;95642.75;2071804;28;21224;-59
2023/04/15 09:15:28;;;;;;;7.05;2.17;;;;;;;16.25;43.51;95652.84;2073373;28;20202;-61
2023/04/15 09:16:30;;;;;;;7.95;1.75;;;;;;;15.96;42.89;95645.53;2071432;28;20808;-60
2023/04/15 09:17:33;;;;;;;18.52;8.93;;;;;;;15.89;42.72;95651.44;2073454;28;20197;-60
2023/04/15 09:18:38;;;;;;;75.63;39.70;;;;;;;15.76;43.31;95652.41;2075572;28;20194;-59
2023/04/15 09:19:40;;;;;;;8.45;1.75;;;;;;;16.13;42.39;95654.69;2075104;28;20225;-59
2023/04/15 09:20:42;;;;;;;4.68;1.52;;;;;;;16.54;42.34;95656.63;2074688;28;20200;-59
2023/04/15 09:21:46;;;;;;;4.57;1.35;;;;;;;16.48;41.88;95653.53;2075914;28;20197;-59
2023/04/15 09:22:49;;;;;;;4.15;1.42;;;;;;;16.77;42.12;95652.03;2076745;28;20201;-59
2023/04/15 09:23:56;;;;;;;5.22;1.90;;;;;;;16.54;41.48;95654.00;2074575;28;20202;-59
2023/04/15 09:24:58;;;;;;;3.75;1.50;;;;;;;16.52;42.30;95656.75;2075820;28;20830;-59
2023/04/15 09:26:03;;;;;;;3.30;1.83;;;;;;;16.91;42.15;95662.28;2072228;28;20284;-59
2023/04/15 09:27:05;;;;;;;5.88;1.63;;;;;;;17.05;41.57;95650.53;2075602;28;20204;-59
2023/04/15 09:28:07;;;;;;;4.03;1.52;;;;;;;17.21;41.83;95657.13;2072227;28;20206;-59
2023/04/15 09:29:12;;;;;;;5.10;1.30;;;;;;;17.16;41.22;95664.59;2073242;28;20201;-59
2023/04/15 09:30:13;;;;;;;4.53;1.40;;;;;;;16.96;41.06;95661.84;2065469;28;20229;-59
2023/04/15 09:31:15;;;;;;;5.97;1.33;;;;;;;16.96;41.21;95669.78;2068331;28;20194;-59
2023/04/15 09:32:17;;;;;;;7.47;1.45;;;;;;;17.07;41.97;95663.59;2066242;28;20760;-59
2023/04/15 09:33:18;;;;;;;4.45;1.48;;;;;;;16.88;42.15;95666.94;2067471;28;20195;-59
2023/04/15 09:34:20;;;;;;;4.22;1.45;;;;;;;17.16;42.04;95664.59;2067372;28;20678;-59
2023/04/15 09:35:23;;;;;;;5.38;1.85;;;;;;;17.11;42.11;95663.16;2067415;28;20326;-59
2023/04/15 09:36:28;;;;;;;4.90;1.65;;;;;;;15.97;42.03;95656.91;2067079;28;20205;-59
2023/04/15 09:37:36;;;;;;;7.95;1.90;;;;;;;16.86;42.21;95667.06;2066149;28;20201;-59
2023/04/15 09:38:54;;;;;;;7.35;2.33;;;;;;;17.02;42.47;95656.06;2067618;28;20236;-59
2023/04/15 09:39:56;;;;;;;4.78;1.75;;;;;;;16.86;43.07;95669.72;2067130;28;20226;-59
2023/04/15 09:40:58;;;;;;;8.75;1.55;;;;;;;17.06;42.61;95669.81;2063958;28;20654;-59
2023/04/15 09:42:06;;;;;;;6.10;1.80;;;;;;;16.92;41.60;95666.56;2064736;28;20684;-59
2023/04/15 09:43:11;;;;;;;3.20;1.80;;;;;;;16.91;42.50;95666.69;2069851;28;20190;-59
2023/04/15 09:44:23;;;;;;;7.43;1.73;;;;;;;17.04;41.30;95664.69;2067369;28;20206;-59
2023/04/15 09:45:25;;;;;;;7.85;1.50;;;;;;;17.04;41.71;95669.97;2066851;28;20214;-59
2023/04/15 09:46:44;;;;;;;4.22;1.88;;;;;;;17.06;41.46;95670.63;2067838;28;20259;-59
2023/04/15 09:47:45;;;;;;;5.65;2.00;;;;;;;17.01;41.23;95667.56;2066277;28;20201;-59
2023/04/15 09:49:07;;;;;;;7.55;1.70;;;;;;;17.22;40.12;95667.53;2064667;28;20253;-59
2023/04/15 09:50:08;;;;;;;12.02;1.73;;;;;;;17.20;39.65;95668.63;2066913;28;20230;-59
2023/04/15 09:51:10;;;;;;;5.78;1.92;;;;;;;17.17;39.11;95669.72;2067073;28;20198;-59
2023/04/15 09:52:12;;;;;;;6.72;1.95;;;;;;;16.81;38.96;95675.38;2067019;28;20202;-59
2023/04/15 09:53:19;;;;;;;3.08;1.20;;;;;;;16.73;39.71;95672.53;2066883;28;20246;-59
2023/04/15 09:54:20;;;;;;;7.05;1.67;;;;;;;16.43;39.64;95673.31;2067844;28;20785;-59
2023/04/15 09:55:22;;;;;;;3.13;1.25;;;;;;;16.75;39.49;95677.69;2069608;28;20664;-59
2023/04/15 09:56:31;;;;;;;3.75;1.50;;;;;;;16.10;39.99;95670.75;2067707;28;20285;-59
2023/04/15 09:57:35;;;;;;;5.38;1.42;;;;;;;16.32;40.74;95672.41;2067228;28;20229;-59
2023/04/15 09:58:37;;;;;;;6.75;1.65;;;;;;;16.11;40.46;95632.91;2068726;28;20829;-59
2023/04/15 09:59:39;;;;;;;7.00;1.63;;;;;;;16.26;41.04;95680.00;2066537;28;20252;-59
2023/04/15 10:00:40;;;;;;;5.50;1.80;;;;;;;16.80;41.10;95683.41;2067804;28;20220;-59
2023/04/15 10:01:42;;;;;;;6.78;1.80;;;;;;;16.90;40.83;95678.16;2067880;28;20583;-59
2023/04/15 10:02:46;;;;;;;77.38;49.20;;;;;;;17.16;40.94;95677.78;2068339;28;20292;-60
2023/04/15 10:03:48;;;;;;;10.02;4.18;;;;;;;17.17;41.15;95682.91;2066288;28;20595;-61
2023/04/15 10:04:51;;;;;;;49.00;26.20;;;;;;;17.29;41.00;95679.22;2067828;28;20676;-60
2023/04/15 10:05:55;;;;;;;4.88;1.95;;;;;;;17.06;40.87;95678.56;2066896;28;20556;-60
2023/04/15 10:06:58;;;;;;;7.93;1.75;;;;;;;17.22;41.07;95675.44;2067463;28;20291;-60
2023/04/15 10:08:01;;;;;;;4.50;1.63;;;;;;;17.15;41.25;95679.56;2067922;28;20684;-60
2023/04/15 10:09:03;;;;;;;5.22;2.00;;;;;;;16.79;41.01;95674.66;2066630;28;20712;-60
2023/04/15 10:10:05;;;;;;;6.18;1.67;;;;;;;16.54;40.91;95672.44;2063161;28;20703;-60
2023/04/15 10:11:06;;;;;;;5.85;1.60;;;;;;;16.22;40.71;95673.31;2067790;28;20203;-60
2023/04/15 10:12:09;;;;;;;5.20;1.80;;;;;;;16.40;41.88;95676.22;2063776;28;20669;-60
2023/04/15 10:13:12;;;;;;;7.30;1.90;;;;;;;16.08;41.11;95670.03;2071926;28;20201;-60
2023/04/15 10:14:15;;;;;;;6.05;1.50;;;;;;;16.22;41.67;95674.16;2072194;28;20289;-60
2023/04/15 10:15:17;;;;;;;6.90;1.60;;;;;;;16.52;41.74;95679.63;2066948;28;20249;-60
2023/04/15 10:16:20;;;;;;;4.35;1.35;;;;;;;15.65;40.65;95666.41;2068301;28;20684;-60
2023/04/15 10:17:22;;;;;;;4.93;1.40;;;;;;;16.09;41.04;95676.97;2066697;28;20201;-60
2023/04/15 10:18:26;;;;;;;3.47;1.35;;;;;;;15.71;40.62;95675.63;2075777;28;20856;-60
2023/04/15 10:19:32;;;;;;;3.67;1.40;;;;;;;16.14;41.64;95674.78;2074014;28;20204;-60
2023/04/15 10:20:35;;;;;;;4.47;1.73;;;;;;;16.14;40.83;95674.78;2066756;28;20251;-60
2023/04/15 10:21:37;;;;;;;6.35;1.40;;;;;;;16.11;40.81;95682.94;2066228;28;20294;-60
2023/04/15 10:22:40;;;;;;;7.90;1.52;;;;;;;16.30;40.48;95684.03;2066087;28;20340;-60
2023/04/15 10:23:41;;;;;;;6.47;1.65;;;;;;;16.31;41.19;95683.91;2066660;28;20618;-60
2023/04/15 10:24:44;;;;;;;6.18;1.83;;;;;;;16.19;42.54;95679.69;2063578;28;20313;-60
2023/04/15 10:25:46;;;;;;;4.32;1.60;;;;;;;15.71;43.83;95675.63;2068319;28;20210;-60
2023/04/15 10:26:47;;;;;;;8.90;1.85;;;;;;;15.40;44.79;95680.72;2066860;28;20689;-60
2023/04/15 10:27:51;;;;;;;4.07;1.63;;;;;;;15.52;44.61;95685.00;2073925;28;20582;-60
2023/04/15 10:28:53;;;;;;;4.10;1.70;;;;;;;15.48;45.45;95674.84;2074701;28;20705;-60
2023/04/15 10:29:56;;;;;;;4.90;1.48;;;;;;;15.21;44.70;95688.38;2064675;28;20252;-60
2023/04/15 10:30:58;;;;;;;5.28;1.70;;;;;;;15.05;45.19;95681.69;2066553;28;20256;-60
2023/04/15 10:32:00;;;;;;;10.23;2.40;;;;;;;14.44;46.27;95687.22;2067423;28;20198;-60
2023/04/15 10:33:04;;;;;;;5.88;2.05;;;;;;;14.85;46.02;95683.25;2068229;28;20286;-60
2023/04/15 10:34:06;;;;;;;5.63;1.90;;;;;;;14.73;45.91;95687.66;2063864;28;20631;-60
2023/04/15 10:35:08;;;;;;;10.30;2.20;;;;;;;14.86;45.05;95690.16;2065266;28;20230;-60
2023/04/15 10:36:11;;;;;;;5.18;2.03;;;;;;;14.99;44.12;95690.06;2067773;28;20205;-60
2023/04/15 10:37:19;;;;;;;5.18;1.80;;;;;;;14.89;43.91;95691.72;2069206;28;20193;-60
2023/04/15 10:38:37;;;;;;;4.78;1.58;;;;;;;15.13;43.93;95687.19;2067661;28;20660;-60
2023/04/15 10:39:40;;;;;;;5.88;1.75;;;;;;;14.96;44.59;95695.56;2074835;28;20225;-60
2023/04/15 10:40:44;;;;;;;5.28;1.55;;;;;;;15.02;44.62;95687.22;2073913;28;20208;-60
2023/04/15 10:41:46;;;;;;;4.40;2.35;;;;;;;14.78;44.57;95696.03;2066194;28;20384;-60
2023/04/15 10:42:48;;;;;;;5.93;3.10;;;;;;;14.79;44.55;95692.44;2065968;28;20206;-60
2023/04/15 10:43:59;;;;;;;4.35;2.10;;;;;;;14.84;45.53;95695.56;2067819;28;20292;-60
2023/04/15 10:45:02;;;;;;;6.82;2.17;;;;;;;14.85;45.88;95689.34;2066419;28;20221;-60
2023/04/15 10:46:05;;;;;;;5.63;1.90;;;;;;;14.64;43.85;95697.06;2067766;28;20201;-60
2023/04/15 10:47:14;;;;;;;3.83;1.73;;;;;;;14.88;43.11;95704.03;2064575;28;20198;-60
2023/04/15 10:48:17;;;;;;;9.18;1.70;;;;;;;14.67;42.79;95704.72;2066810;28;20198;-60
2023/04/15 10:49:25;;;;;;;6.78;2.58;;;;;;;14.83;43.93;95700.91;2065915;28;20209;-60
2023/04/15 10:50:28;;;;;;;4.30;1.92;;;;;;;15.03;43.74;95707.25;2071228;28;20680;-60
2023/04/15 10:51:30;;;;;;;6.43;1.80;;;;;;;15.05;43.01;95708.00;2071650;28;20201;-60
2023/04/15 10:52:32;;;;;;;5.43;1.88;;;;;;;15.28;42.39;95705.34;2068899;28;20868;-60
2023/04/15 10:53:33;;;;;;;9.27;3.08;;;;;;;15.25;42.53;95709.06;2068543;28;20253;-60
2023/04/15 10:54:37;;;;;;;8.18;2.00;;;;;;;14.97;43.73;95716.47;2063319;28;20304;-60
2023/04/15 10:55:39;;;;;;;6.72;2.60;;;;;;;15.04;43.74;95714.19;2066364;28;20214;-60
2023/04/15 10:56:44;;;;;;;15.45;2.85;;;;;;;15.14;44.10;95717.78;2066184;28;20306;-60
2023/04/15 10:57:50;;;;;;;5.55;2.30;;;;;;;15.35;44.13;95715.28;2066734;28;20218;-60
2023/04/15 10:58:51;;;;;;;6.05;2.30;;;;;;;15.79;43.78;95714.50;2066841;28;20284;-60
2023/04/15 10:59:58;;;;;;;4.85;2.05;;;;;;;16.05;43.34;95720.31;2065406;28;20221;-60
2023/04/15 11:01:01;;;;;;;14.07;2.97;;;;;;;15.74;43.82;95714.84;2067215;28;20568;-60
2023/04/15 11:02:06;;;;;;;8.60;2.38;;;;;;;15.38;45.15;95723.91;2066422;28;20201;-60
2023/04/15 11:03:09;;;;;;;8.55;2.58;;;;;;;15.38;45.50;95706.31;2066529;28;20206;-60
2023/04/15 11:04:10;;;;;;;5.18;2.30;;;;;;;15.32;45.22;95719.94;2067146;28;20241;-60
2023/04/15 11:05:16;;;;;;;9.20;2.50;;;;;;;14.65;45.89;95719.78;2066244;28;20255;-60
2023/04/15 11:06:18;;;;;;;7.85;3.15;;;;;;;14.88;45.81;95718.97;2066615;28;20572;-60
2023/04/15 11:07:40;;;;;;;7.25;2.70;;;;;;;15.34;45.47;95721.47;2068114;28;20199;-60
2023/04/15 11:09:05;;;;;;;6.40;2.38;;;;;;;15.40;43.41;95721.97;2068612;28;20202;-60
2023/04/15 11:10:12;;;;;;;8.60;2.28;;;;;;;15.73;43.80;95723.72;2064800;28;20798;-60
2023/04/15 11:11:14;;;;;;;5.85;2.70;;;;;;;16.24;43.16;95716.16;2063750;28;20205;-60
2023/04/15 11:12:17;;;;;;;10.18;2.85;;;;;;;16.12;42.79;95710.09;2064236;28;20265;-60
2023/04/15 11:13:21;;;;;;;5.13;2.00;;;;;;;16.55;41.90;95722.38;2065619;28;20294;-60
2023/04/15 11:14:23;;;;;;;8.90;2.05;;;;;;;16.59;43.10;95721.13;2066745;28;20617;-59
2023/04/15 11:15:37;;;;;;;9.43;2.70;;;;;;;16.40;42.65;95719.19;2067628;28;20205;-59
2023/04/15 11:16:43;;;;;;;11.18;3.10;;;;;;;15.87;43.90;95725.28;2067102;28;20202;-60
2023/04/15 11:17:45;;;;;;;9.07;2.70;;;;;;;15.80;44.17;95727.50;2065248;28;20206;-60
2023/04/15 11:18:56;;;;;;;15.45;3.05;;;;;;;15.58;44.85;95722.28;2064723;28;20229;-60
2023/04/15 11:19:57;;;;;;;9.15;3.15;;;;;;;15.50;45.27;95721.13;2064966;28;20228;-60
2023/04/15 11:21:02;;;;;;;9.07;3.33;;;;;;;15.19;46.40;95718.25;2063605;28;20225;-60
2023/04/15 11:22:08;;;;;;;7.78;3.05;;;;;;;15.21;46.09;95727.81;2064251;28;20230;-61
2023/04/15 11:23:10;;;;;;;6.68;2.85;;;;;;;15.45;45.06;95723.28;2063701;28;20226;-61
2023/04/15 11:24:28;;;;;;;11.35;3.17;;;;;;;15.27;46.17;95733.44;2066340;28;20204;-61
2023/04/15 11:25:34;;;;;;;12.85;3.58;;;;;;;15.09;46.28;95727.81;2065693;28;20813;-61
2023/04/15 11:26:35;;;;;;;8.85;3.08;;;;;;;15.40;46.13;95730.72;2066680;28;20205;-60
2023/04/15 11:27:37;;;;;;;11.88;3.30;;;;;;;15.71;45.42;95723.00;2063431;28;20569;-60
2023/04/15 11:28:40;;;;;;;7.63;3.13;;;;;;;15.79;45.20;95730.28;2063862;28;20415;-60
2023/04/15 11:29:43;;;;;;;5.45;2.75;;;;;;;16.47;46.04;95730.09;2064020;28;20675;-60
2023/04/15 11:30:44;;;;;;;9.60;2.55;;;;;;;16.68;44.83;95731.88;2066489;28;20277;-60
2023/04/15 11:31:48;;;;;;;14.75;4.95;;;;;;;16.74;44.77;95734.84;2063617;28;20198;-60
2023/04/15 11:32:51;;;;;;;8.45;2.53;;;;;;;17.04;45.23;95738.53;2064758;28;20237;-60
2023/04/15 11:33:58;;;;;;;11.60;3.35;;;;;;;16.28;45.85;95728.97;2063508;28;20202;-60
2023/04/15 11:34:59;;;;;;;6.40;2.72;;;;;;;15.66;44.92;95730.44;2064414;28;20316;-60
2023/04/15 11:36:02;;;;;;;10.32;3.17;;;;;;;15.87;45.37;95732.31;2067419;28;20214;-60
2023/04/15 11:37:05;;;;;;;9.93;3.25;;;;;;;15.95;45.28;95729.94;2066467;28;20210;-60
2023/04/15 11:38:12;;;;;;;10.02;3.60;;;;;;;16.56;44.81;95741.66;2065966;28;20198;-60
2023/04/15 11:39:14;;;;;;;7.20;2.90;;;;;;;16.40;44.57;95737.63;2065196;28;20209;-60
2023/04/15 11:40:16;;;;;;;7.80;3.58;;;;;;;17.22;43.97;95745.84;2068416;28;20202;-60
2023/04/15 11:41:22;;;;;;;14.45;2.90;;;;;;;17.18;44.16;95736.50;2064930;28;20210;-60
2023/04/15 11:42:23;;;;;;;6.28;2.95;;;;;;;17.51;43.87;95742.47;2067072;28;20569;-60
2023/04/15 11:43:25;;;;;;;9.85;3.38;;;;;;;17.74;43.94;95746.56;2070075;28;20232;-60
2023/04/15 11:44:27;;;;;;;11.80;3.67;;;;;;;17.74;43.55;95743.94;2069690;28;20193;-60
2023/04/15 11:45:28;;;;;;;6.15;3.40;;;;;;;17.73;43.88;95742.25;2068586;28;20205;-60
2023/04/15 11:46:30;;;;;;;11.18;3.53;;;;;;;17.50;43.83;95743.47;2066325;28;20756;-60
2023/04/15 11:47:32;;;;;;;8.40;3.40;;;;;;;17.49;43.42;95736.50;2069876;28;20197;-60
2023/04/15 11:48:35;;;;;;;8.77;2.60;;;;;;;17.18;43.91;95742.63;2064571;28;20213;-59
2023/04/15 11:49:40;;;;;;;7.72;3.10;;;;;;;17.52;43.05;95752.91;2065710;28;20249;-60